createdAt,value
2022-09-13T00:02:27.204Z,10.53
2022-09-13T00:05:44.168Z,10.80
2022-09-13T00:09:01.409Z,12.58
2022-09-13T00:12:17.607Z,10.38
2022-09-13T00:15:34.399Z,10.50
2022-09-13T00:18:50.736Z,13.25
2022-09-13T00:22:07.214Z,10.85
2022-09-13T00:25:23.350Z,11.40
2022-09-13T00:28:39.395Z,15.85
2022-09-13T00:31:55.358Z,13.53
2022-09-13T00:35:13.319Z,11.43
2022-09-13T00:38:29.338Z,13.68
2022-09-13T00:41:45.679Z,13.30
2022-09-13T00:45:06.902Z,14.15
2022-09-13T00:48:27.857Z,13.28
2022-09-13T00:51:44.631Z,13.00
2022-09-13T00:55:04.917Z,12.48
2022-09-13T00:58:26.836Z,14.33
2022-09-13T01:01:47.953Z,13.23
2022-09-13T01:05:04.854Z,12.03
2022-09-13T01:08:23.724Z,13.48
2022-09-13T01:11:47.988Z,12.85
2022-09-13T01:15:08.164Z,13.88
2022-09-13T01:18:24.873Z,10.80
2022-09-13T01:22:23.030Z,14.28
2022-09-13T01:26:27.992Z,12.80
2022-09-13T01:30:21.276Z,12.93
2022-09-13T01:33:53.986Z,14.05
2022-09-13T01:37:38.105Z,12.23
2022-09-13T01:41:04.782Z,14.25
2022-09-13T01:44:28.955Z,13.35
2022-09-13T01:47:50.733Z,10.55
2022-09-13T01:51:12.103Z,11.18
2022-09-13T01:54:34.237Z,11.08
2022-09-13T01:57:54.476Z,10.88
2022-09-13T02:01:18.520Z,12.00
2022-09-13T02:04:41.076Z,12.85
2022-09-13T02:08:03.893Z,13.38
2022-09-13T02:11:23.203Z,13.13
2022-09-13T02:18:00.473Z,11.10
2022-09-13T02:21:20.568Z,12.45
2022-09-13T02:24:40.348Z,12.00
2022-09-13T02:28:02.497Z,11.85
2022-09-13T02:31:20.211Z,11.73
2022-09-13T02:34:40.356Z,14.20
2022-09-13T02:38:02.869Z,10.78
2022-09-13T02:41:23.658Z,10.40
2022-09-13T02:44:43.484Z,13.10
2022-09-13T02:48:04.325Z,13.78
2022-09-13T02:51:26.095Z,12.25
2022-09-13T02:54:46.209Z,11.08
2022-09-13T02:58:08.395Z,11.08
2022-09-13T03:01:25.939Z,11.10
2022-09-13T03:04:43.187Z,12.15
2022-09-13T03:08:00.433Z,10.88
2022-09-13T03:11:23.701Z,11.48
2022-09-13T03:14:50.743Z,11.43
2022-09-13T03:18:13.095Z,11.88
2022-09-13T03:21:43.370Z,11.20
2022-09-13T03:25:06.581Z,10.43
2022-09-13T03:28:30.246Z,12.05
2022-09-13T03:31:51.529Z,9.10
2022-09-13T03:35:15.169Z,9.03
2022-09-13T03:38:36.440Z,10.15
2022-09-13T03:41:57.989Z,10.00
2022-09-13T03:45:17.338Z,9.63
2022-09-13T03:51:49.060Z,8.63
2022-09-13T03:55:05.756Z,9.03
2022-09-13T03:58:27.057Z,9.70
2022-09-13T04:01:44.677Z,8.38
2022-09-13T04:05:02.487Z,8.40
2022-09-13T04:08:18.395Z,8.25
2022-09-13T04:11:35.560Z,10.15
2022-09-13T04:14:52.917Z,8.30
2022-09-13T04:18:09.825Z,10.35
2022-09-13T04:21:27.401Z,8.88
2022-09-13T04:24:44.834Z,11.75
2022-09-13T04:28:05.788Z,7.88
2022-09-13T04:31:21.793Z,18.15
2022-09-13T04:34:37.960Z,9.58
2022-09-13T04:37:54.101Z,11.08
2022-09-13T04:41:10.310Z,11.13
2022-09-13T04:44:27.971Z,13.23
2022-09-13T04:47:43.899Z,8.85
2022-09-13T04:50:59.957Z,8.80
2022-09-13T04:54:17.474Z,9.00
2022-09-13T04:57:33.670Z,10.18
2022-09-13T05:00:50.542Z,11.33
2022-09-13T05:04:06.718Z,8.58
2022-09-13T05:07:23.290Z,10.25
2022-09-13T05:10:39.252Z,11.75
2022-09-13T05:13:59.931Z,8.83
2022-09-13T05:17:16.328Z,8.93
2022-09-13T05:20:32.449Z,12.45
2022-09-13T05:23:48.528Z,12.58
2022-09-13T05:27:04.494Z,10.65
2022-09-13T05:30:23.265Z,12.68
2022-09-13T05:33:42.822Z,9.48
2022-09-13T05:36:58.839Z,10.93
2022-09-13T05:40:19.163Z,10.78
2022-09-13T05:43:38.741Z,10.55
2022-09-13T05:46:56.477Z,7.90
2022-09-13T05:50:32.915Z,9.10
2022-09-13T05:53:34.067Z,9.28
2022-09-13T05:56:52.113Z,10.93
2022-09-13T06:00:08.543Z,9.43
2022-09-13T06:03:29.121Z,9.27
2022-09-13T06:06:45.626Z,9.83
2022-09-13T06:10:01.840Z,12.18
2022-09-13T06:13:18.051Z,8.18
2022-09-13T06:16:34.213Z,9.28
2022-09-13T06:19:50.507Z,8.68
2022-09-13T06:23:06.727Z,7.88
2022-09-13T06:26:25.489Z,9.65
2022-09-13T06:29:41.690Z,8.03
2022-09-13T06:32:57.902Z,11.45
2022-09-13T06:36:19.087Z,10.38
2022-09-13T06:39:35.509Z,8.85
2022-09-13T06:42:53.564Z,7.55
2022-09-13T06:46:15.540Z,7.73
2022-09-13T06:49:32.290Z,9.03
2022-09-13T06:52:48.389Z,7.90
2022-09-13T06:56:13.853Z,7.88
2022-09-13T06:59:30.336Z,5.80
2022-09-13T07:02:46.435Z,6.25
2022-09-13T07:06:02.544Z,6.95
2022-09-13T07:09:23.261Z,8.30
2022-09-13T07:12:39.275Z,8.63
2022-09-13T07:15:56.478Z,7.10
2022-09-13T07:19:17.988Z,9.20
2022-09-13T07:22:33.999Z,11.98
2022-09-13T07:25:50.069Z,15.68
2022-09-13T07:29:09.089Z,7.58
2022-09-13T07:32:25.892Z,7.38
2022-09-13T07:35:41.939Z,6.13
2022-09-13T07:38:58.214Z,7.35
2022-09-13T07:42:14.712Z,7.85
2022-09-13T07:45:30.804Z,9.73
2022-09-13T07:48:49.313Z,6.35
2022-09-13T07:52:05.462Z,8.38
2022-09-13T07:55:21.804Z,7.75
2022-09-13T07:58:38.427Z,5.33
2022-09-13T08:01:58.748Z,7.68
2022-09-13T08:05:17.733Z,6.23
2022-09-13T08:08:34.734Z,7.20
2022-09-13T08:11:53.932Z,7.15
2022-09-13T08:15:10.836Z,6.20
2022-09-13T08:18:28.421Z,6.08
2022-09-13T08:21:47.306Z,5.48
2022-09-13T08:25:03.808Z,5.95
2022-09-13T08:28:27.690Z,5.10
2022-09-13T08:31:44.535Z,5.75
2022-09-13T08:35:01.650Z,5.18
2022-09-13T08:38:18.318Z,6.33
2022-09-13T08:41:53.293Z,4.18
2022-09-13T08:45:10.204Z,4.60
2022-09-13T08:48:32.211Z,3.25
2022-09-13T08:51:53.038Z,3.58
2022-09-13T08:55:16.217Z,3.83
2022-09-13T08:58:52.894Z,4.65
2022-09-13T09:02:25.635Z,16.78
2022-09-13T09:05:49.955Z,4.98
2022-09-13T09:09:11.746Z,3.33
2022-09-13T09:12:36.304Z,3.73
2022-09-13T09:15:56.959Z,3.33
2022-09-13T09:19:22.632Z,3.00
2022-09-13T09:23:07.620Z,4.08
2022-09-13T09:26:29.936Z,2.60
2022-09-13T09:29:47.835Z,3.50
2022-09-13T09:33:18.060Z,3.13
2022-09-13T09:36:44.383Z,3.20
2022-09-13T09:40:11.598Z,2.25
2022-09-13T09:43:34.221Z,5.68
2022-09-13T09:46:53.954Z,3.83
2022-09-13T09:50:17.230Z,3.13
2022-09-13T09:53:37.990Z,2.73
2022-09-13T09:57:02.846Z,3.35
2022-09-13T10:00:26.774Z,3.38
2022-09-13T10:03:47.379Z,4.95
2022-09-13T10:07:27.909Z,3.38
2022-09-13T10:10:49.992Z,3.43
2022-09-13T10:14:11.777Z,31.08
2022-09-13T10:17:34.736Z,6.28
2022-09-13T10:20:56.768Z,3.33
2022-09-13T10:24:29.373Z,3.40
2022-09-13T10:27:49.430Z,3.00
2022-09-13T10:31:11.951Z,3.23
2022-09-13T10:34:31.744Z,4.40
2022-09-13T10:37:50.778Z,4.53
2022-09-13T10:41:09.303Z,4.00
2022-09-13T10:44:39.896Z,3.50
2022-09-13T10:47:59.993Z,3.13
2022-09-13T10:51:24.935Z,3.03
2022-09-13T10:54:41.330Z,3.60
2022-09-13T10:57:59.319Z,3.85
2022-09-13T11:01:41.042Z,2.57
2022-09-13T11:05:21.512Z,2.68
2022-09-13T11:08:50.190Z,3.08
2022-09-13T11:12:11.725Z,2.68
2022-09-13T11:15:41.889Z,2.28
2022-09-13T11:19:20.814Z,2.78
2022-09-13T11:26:10.203Z,3.23
2022-09-13T11:33:26.828Z,2.18
2022-09-13T11:37:09.008Z,3.80
2022-09-13T11:40:52.624Z,1.68
2022-09-13T11:44:30.572Z,3.55
2022-09-13T11:47:57.499Z,1.60
2022-09-13T11:51:20.598Z,2.30
2022-09-13T11:54:55.217Z,3.98
2022-09-13T11:58:15.887Z,1.58
2022-09-13T12:01:37.534Z,2.85
2022-09-13T12:05:21.009Z,1.95
2022-09-13T12:08:24.163Z,3.45
2022-09-13T12:11:45.194Z,1.93
2022-09-13T12:15:05.930Z,2.38
2022-09-13T12:18:26.525Z,2.65
2022-09-13T12:21:46.795Z,6.68
2022-09-13T12:25:08.721Z,2.85
2022-09-13T12:28:30.509Z,1.90
2022-09-13T12:31:46.643Z,4.20
2022-09-13T12:35:07.969Z,4.75
2022-09-13T12:38:57.762Z,3.10
2022-09-13T12:42:43.077Z,2.70
2022-09-13T12:46:36.635Z,3.03
2022-09-13T12:54:10.892Z,2.78
2022-09-13T12:57:42.077Z,2.78
2022-09-13T13:01:09.130Z,1.83
2022-09-13T13:04:29.470Z,1.50
2022-09-13T13:07:48.002Z,4.05
2022-09-13T13:11:14.680Z,2.55
2022-09-13T13:14:54.212Z,2.38
2022-09-13T13:18:28.420Z,3.60
2022-09-13T13:21:47.852Z,2.30
2022-09-13T13:25:05.652Z,3.15
2022-09-13T13:29:20.944Z,3.00
2022-09-13T13:32:39.167Z,3.45
2022-09-13T13:35:58.468Z,3.55
2022-09-13T13:39:17.700Z,3.60
2022-09-13T13:42:40.397Z,2.68
2022-09-13T13:46:37.127Z,2.58
2022-09-13T13:49:58.155Z,2.98
2022-09-13T13:53:34.556Z,6.80
2022-09-13T13:56:57.322Z,2.90
2022-09-13T14:00:21.729Z,3.35
2022-09-13T14:04:07.895Z,4.45
2022-09-13T14:07:58.620Z,2.13
2022-09-13T14:11:26.247Z,3.78
2022-09-13T14:15:02.776Z,4.30
2022-09-13T14:18:58.457Z,2.65
2022-09-13T14:22:27.501Z,3.55
2022-09-13T14:25:44.364Z,4.60
2022-09-13T14:29:00.500Z,4.00
2022-09-13T14:32:23.738Z,6.80
2022-09-13T14:35:44.424Z,5.25
2022-09-13T14:39:04.695Z,4.78
2022-09-13T14:42:26.992Z,14.63
2022-09-13T14:45:46.169Z,5.38
2022-09-13T14:49:06.496Z,4.85
2022-09-13T14:52:29.750Z,4.43
2022-09-13T14:55:49.679Z,4.53
2022-09-13T14:59:09.898Z,3.73
2022-09-13T15:02:30.909Z,3.80
2022-09-13T15:05:47.765Z,9.18
2022-09-13T15:09:09.447Z,4.10
2022-09-13T15:12:33.865Z,5.33
2022-09-13T15:16:03.551Z,4.75
2022-09-13T15:19:47.400Z,4.33
2022-09-13T15:23:04.016Z,2.63
2022-09-13T15:26:36.140Z,3.90
2022-09-13T15:30:05.547Z,3.33
2022-09-13T15:33:36.182Z,4.38
2022-09-13T15:36:54.141Z,6.33
2022-09-13T15:40:26.807Z,5.23
2022-09-13T15:43:42.920Z,3.68
2022-09-13T15:47:03.114Z,3.78
2022-09-13T15:50:32.101Z,7.93
2022-09-13T15:53:50.453Z,4.33
2022-09-13T15:57:08.204Z,4.23
2022-09-13T16:00:31.179Z,4.08
2022-09-13T16:03:47.427Z,4.20
2022-09-13T16:07:03.509Z,5.35
2022-09-13T16:10:28.208Z,6.73
2022-09-13T16:13:44.479Z,5.45
2022-09-13T16:17:00.625Z,5.68
2022-09-13T16:20:21.778Z,3.98
2022-09-13T16:23:37.773Z,4.18
2022-09-13T16:26:54.177Z,4.55
2022-09-13T16:30:10.886Z,10.88
2022-09-13T16:33:27.383Z,5.90
2022-09-13T16:36:43.706Z,6.28
2022-09-13T16:40:03.323Z,5.28
2022-09-13T16:43:19.598Z,4.23
2022-09-13T16:46:35.943Z,4.40
2022-09-13T16:49:53.578Z,4.73
2022-09-13T16:53:10.029Z,7.23
2022-09-13T16:56:32.844Z,5.10
2022-09-13T16:59:49.332Z,4.88
2022-09-13T17:03:06.971Z,4.68
2022-09-13T17:06:26.048Z,4.43
2022-09-13T17:12:58.894Z,5.10
2022-09-13T17:16:27.552Z,5.68
2022-09-13T17:19:45.325Z,5.88
2022-09-13T17:23:02.886Z,6.13
2022-09-13T17:26:20.842Z,6.10
2022-09-13T17:29:37.897Z,5.08
2022-09-13T17:32:55.431Z,4.63
2022-09-13T17:36:17.408Z,7.43
2022-09-13T17:39:34.898Z,5.83
2022-09-13T17:42:52.991Z,4.60
2022-09-13T17:46:14.816Z,4.78
2022-09-13T17:49:32.716Z,5.58
2022-09-13T17:52:49.994Z,9.75
2022-09-13T17:56:07.754Z,8.10
2022-09-13T17:59:30.787Z,7.78
2022-09-13T18:02:52.980Z,10.35
2022-09-13T18:06:18.882Z,9.90
2022-09-13T18:09:36.706Z,11.35
2022-09-13T18:12:53.937Z,9.58
2022-09-13T18:16:18.557Z,9.85
2022-09-13T18:19:45.766Z,8.78
2022-09-13T18:22:53.944Z,10.60
2022-09-13T18:26:15.008Z,8.63
2022-09-13T18:29:36.272Z,7.33
2022-09-13T18:32:54.066Z,8.23
2022-09-13T18:36:16.063Z,6.73
2022-09-13T18:39:35.567Z,8.55
2022-09-13T18:42:53.757Z,9.20
2022-09-13T18:46:13.366Z,7.70
2022-09-13T18:49:32.218Z,9.30
2022-09-13T18:52:53.183Z,9.75
2022-09-13T18:56:19.723Z,8.35
2022-09-13T18:59:37.939Z,8.73
2022-09-13T19:03:11.819Z,7.50
2022-09-13T19:06:29.000Z,7.08
2022-09-13T19:09:47.872Z,8.25
2022-09-13T19:13:08.989Z,6.70
2022-09-13T19:16:29.385Z,6.60
2022-09-13T19:19:49.773Z,6.03
2022-09-13T19:23:08.211Z,7.83
2022-09-13T19:26:34.780Z,6.63
2022-09-13T19:30:04.364Z,7.65
2022-09-13T19:33:27.863Z,5.48
2022-09-13T19:36:47.784Z,4.88
2022-09-13T19:40:08.772Z,5.70
2022-09-13T19:43:27.968Z,5.08
2022-09-13T19:46:47.960Z,8.50
2022-09-13T19:50:06.189Z,6.43
2022-09-13T19:53:40.811Z,4.35
2022-09-13T19:56:47.950Z,7.03
2022-09-13T20:00:05.182Z,6.03
2022-09-13T20:03:24.007Z,6.08
2022-09-13T20:06:46.389Z,6.40
2022-09-13T20:10:05.426Z,5.53
2022-09-13T20:13:25.292Z,6.15
2022-09-13T20:16:47.006Z,6.20
2022-09-13T20:20:04.317Z,5.45
2022-09-13T20:23:25.435Z,6.13
2022-09-13T20:26:44.590Z,5.83
2022-09-13T20:30:01.584Z,5.58
2022-09-13T20:33:18.942Z,4.10
2022-09-13T20:36:40.183Z,4.90
2022-09-13T20:39:57.485Z,4.18
2022-09-13T20:43:14.074Z,5.35
2022-09-13T20:46:32.465Z,4.93
2022-09-13T20:49:49.410Z,5.43
2022-09-13T20:53:06.447Z,4.45
2022-09-13T20:56:25.659Z,6.63
2022-09-13T20:59:41.752Z,4.03
2022-09-13T21:03:00.901Z,5.43
2022-09-13T21:09:32.595Z,5.28
2022-09-13T21:12:49.887Z,4.25
2022-09-13T21:16:12.148Z,5.00
2022-09-13T21:19:28.225Z,6.15
2022-09-13T21:22:47.825Z,4.13
2022-09-13T21:26:04.200Z,4.13
2022-09-13T21:29:20.933Z,4.03
2022-09-13T21:32:37.798Z,3.85
2022-09-13T21:35:54.924Z,5.15
2022-09-13T21:39:12.494Z,3.70
2022-09-13T21:42:28.888Z,3.35
2022-09-13T21:45:46.635Z,3.95
2022-09-13T21:49:06.382Z,4.05
2022-09-13T21:52:22.370Z,4.50
2022-09-13T21:55:41.983Z,4.28
2022-09-13T21:59:01.142Z,3.55
